createdAt,value
2023-01-09T00:02:16.149Z,3.90
2023-01-09T00:05:48.810Z,5.30
2023-01-09T00:09:15.349Z,5.80
2023-01-09T00:12:57.047Z,6.30
2023-01-09T00:16:16.989Z,4.10
2023-01-09T00:22:59.583Z,4.20
2023-01-09T00:26:33.601Z,4.70
2023-01-09T00:30:02.077Z,4.40
2023-01-09T00:33:51.961Z,5.60
2023-01-09T00:37:33.581Z,5.20
2023-01-09T00:41:21.949Z,5.00
2023-01-09T00:45:07.377Z,4.30
2023-01-09T00:48:57.005Z,4.30
2023-01-09T00:52:46.786Z,6.80
2023-01-09T01:47:30.042Z,5.90
2023-01-09T01:51:23.318Z,3.20
2023-01-09T01:54:54.531Z,5.40
2023-01-09T01:58:35.041Z,2.90
2023-01-09T02:01:56.631Z,6.70
2023-01-09T02:05:47.169Z,5.60
2023-01-09T02:09:37.377Z,5.10
2023-01-09T02:12:58.999Z,3.90
2023-01-09T02:16:57.269Z,4.50
2023-01-09T02:20:44.380Z,4.00
2023-01-09T02:24:43.008Z,5.00
2023-01-09T02:28:51.141Z,5.30
2023-01-09T02:32:41.208Z,7.30
2023-01-09T02:36:33.864Z,4.50
2023-01-09T02:40:34.006Z,4.90
2023-01-09T02:44:05.460Z,5.30
2023-01-09T02:48:10.598Z,4.20
2023-01-09T02:52:12.463Z,5.10
2023-01-09T02:55:54.684Z,5.70
2023-01-09T02:59:40.224Z,9.50
2023-01-09T03:03:39.473Z,4.90
2023-01-09T03:07:44.429Z,4.40
2023-01-09T03:11:29.806Z,6.20
2023-01-09T03:15:18.569Z,4.30
2023-01-09T03:19:09.786Z,4.70
2023-01-09T03:22:23.141Z,4.90
2023-01-09T03:26:13.722Z,3.90
2023-01-09T03:29:53.682Z,6.10
2023-01-09T03:33:43.585Z,7.00
2023-01-09T03:37:33.269Z,7.00
2023-01-09T03:41:22.878Z,5.20
2023-01-09T03:45:12.947Z,6.30
2023-01-09T03:48:46.139Z,6.30
2023-01-09T03:52:25.062Z,7.00
2023-01-09T03:55:45.363Z,4.80
2023-01-09T03:59:23.981Z,4.70
2023-01-09T04:03:03.791Z,6.90
2023-01-09T04:06:53.853Z,6.30
2023-01-09T04:10:28.777Z,5.00
2023-01-09T04:14:18.562Z,5.00
2023-01-09T04:18:08.465Z,5.00
2023-01-09T04:21:51.001Z,5.10
2023-01-09T04:25:40.975Z,6.30
2023-01-09T04:29:13.741Z,6.10
2023-01-09T04:32:53.009Z,6.90
2023-01-09T04:36:43.182Z,4.20
2023-01-09T04:40:22.731Z,6.00
2023-01-09T04:44:02.902Z,5.80
2023-01-09T04:47:52.876Z,6.80
2023-01-09T04:51:41.602Z,5.50
2023-01-09T04:55:23.869Z,6.60
2023-01-09T04:58:38.642Z,3.50
2023-01-09T05:02:19.003Z,4.90
2023-01-09T05:05:49.420Z,5.80
2023-01-09T05:09:39.819Z,5.10
2023-01-09T05:13:00.625Z,5.00
2023-01-09T05:16:30.098Z,5.80
2023-01-09T05:20:21.057Z,5.10
2023-01-09T05:24:11.158Z,5.70
2023-01-09T05:27:51.006Z,5.80
2023-01-09T05:31:40.200Z,5.40
2023-01-09T05:35:23.012Z,4.80
2023-01-09T05:39:13.317Z,6.30
2023-01-09T05:43:03.191Z,6.60
2023-01-09T05:46:45.812Z,5.00
2023-01-09T05:50:35.385Z,3.50
2023-01-09T05:54:25.379Z,8.40
2023-01-09T05:58:15.277Z,5.20
2023-01-09T06:01:44.192Z,5.60
2023-01-09T06:05:33.927Z,5.60
2023-01-09T06:09:24.138Z,5.60
2023-01-09T06:12:57.675Z,6.10
2023-01-09T06:20:08.951Z,5.40
2023-01-09T06:23:42.066Z,6.10
2023-01-09T06:27:30.946Z,5.20
2023-01-09T06:31:20.947Z,7.60
2023-01-09T06:34:47.047Z,9.50
2023-01-09T06:38:06.844Z,4.50
2023-01-09T06:41:29.439Z,7.40
2023-01-09T06:45:15.086Z,5.50
2023-01-09T06:49:05.281Z,5.90
2023-01-09T06:52:35.296Z,6.40
2023-01-09T06:56:27.744Z,4.40
2023-01-09T06:59:53.164Z,6.40
2023-01-09T07:03:26.164Z,7.60
2023-01-09T07:07:05.334Z,6.20
2023-01-09T07:10:49.451Z,7.50
2023-01-09T07:14:39.678Z,5.30
2023-01-09T07:18:22.478Z,5.30
2023-01-09T07:21:37.681Z,7.10
2023-01-09T07:24:59.487Z,5.50
2023-01-09T07:28:33.428Z,6.60
2023-01-09T07:32:13.652Z,4.70
2023-01-09T07:36:03.375Z,5.10
2023-01-09T07:39:53.708Z,7.80
2023-01-09T07:43:34.833Z,4.00
2023-01-09T07:47:14.091Z,6.20
2023-01-09T07:50:53.303Z,4.20
2023-01-09T07:54:26.411Z,6.60
2023-01-09T07:58:16.409Z,5.30
2023-01-09T08:01:41.717Z,5.10
2023-01-09T08:05:31.868Z,5.00
2023-01-09T08:09:21.907Z,7.20
2023-01-09T08:13:01.014Z,4.70
2023-01-09T08:16:28.107Z,5.40
2023-01-09T08:20:18.827Z,5.80
2023-01-09T08:24:09.303Z,4.80
2023-01-09T08:27:48.861Z,4.80
2023-01-09T08:31:39.401Z,6.40
2023-01-09T08:35:18.260Z,6.00
2023-01-09T08:38:57.119Z,6.30
2023-01-09T08:42:05.841Z,9.20
2023-01-09T08:45:37.623Z,5.60
2023-01-09T08:49:28.136Z,6.60
2023-01-09T08:53:10.045Z,6.40
2023-01-09T08:56:52.746Z,4.70
2023-01-09T09:00:42.661Z,4.10
2023-01-09T09:04:22.913Z,4.30
2023-01-09T09:08:03.736Z,6.00
2023-01-09T09:11:53.767Z,5.80
2023-01-09T09:15:47.017Z,6.00
2023-01-09T09:19:37.638Z,4.30
2023-01-09T09:23:27.896Z,2.90
2023-01-09T09:27:14.460Z,5.80
2023-01-09T09:30:39.664Z,4.00
2023-01-09T09:34:30.058Z,4.70
2023-01-09T09:38:09.852Z,5.60
2023-01-09T09:42:11.498Z,5.00
2023-01-09T09:46:19.271Z,4.00
2023-01-09T09:49:58.048Z,4.10
2023-01-09T09:53:45.353Z,6.50
2023-01-09T09:57:35.839Z,5.70
2023-01-09T10:01:26.143Z,4.20
2023-01-09T10:05:08.866Z,4.10
2023-01-09T10:08:27.333Z,5.30
2023-01-09T10:12:04.196Z,4.40
2023-01-09T10:15:57.640Z,4.10
2023-01-09T10:19:53.508Z,5.70
2023-01-09T10:23:35.517Z,5.30
2023-01-09T10:27:29.537Z,5.50
2023-01-09T10:31:28.242Z,5.30
2023-01-09T10:35:16.395Z,6.20
2023-01-09T10:38:59.847Z,6.30
2023-01-09T10:42:52.329Z,4.20
2023-01-09T10:46:33.044Z,6.20
2023-01-09T10:50:24.026Z,4.00
2023-01-09T10:54:17.213Z,5.90
2023-01-09T10:58:19.479Z,6.20
2023-01-09T11:01:52.669Z,4.20
2023-01-09T11:05:42.663Z,4.70
2023-01-09T11:09:12.001Z,4.10
2023-01-09T11:13:05.255Z,5.00
2023-01-09T11:17:02.713Z,7.30
2023-01-09T11:20:42.176Z,3.20
2023-01-09T11:24:32.334Z,4.10
2023-01-09T11:28:22.833Z,4.50
2023-01-09T11:32:15.593Z,4.20
2023-01-09T11:36:10.455Z,4.80
2023-01-09T11:40:00.542Z,4.00
2023-01-09T11:43:46.136Z,3.70
2023-01-09T11:47:21.799Z,4.50
2023-01-09T11:51:23.933Z,4.30
2023-01-09T11:55:07.154Z,5.00
2023-01-09T11:58:36.216Z,6.10
2023-01-09T12:02:14.279Z,4.00
2023-01-09T12:06:09.480Z,5.00
2023-01-09T12:09:57.135Z,5.20
2023-01-09T12:13:59.139Z,3.80
2023-01-09T12:17:51.753Z,5.50
2023-01-09T12:21:50.952Z,4.40
2023-01-09T12:25:52.841Z,5.90
2023-01-09T12:30:00.372Z,5.60
2023-01-09T12:34:04.140Z,6.00
2023-01-09T12:41:31.622Z,6.30
2023-01-09T12:45:19.984Z,5.00
2023-01-09T12:49:17.777Z,3.70
2023-01-09T12:52:48.397Z,4.60
2023-01-09T12:56:38.390Z,5.50
2023-01-09T13:00:37.359Z,4.10
2023-01-09T13:04:48.348Z,5.00
2023-01-09T13:08:41.033Z,4.50
2023-01-09T13:12:29.292Z,5.30
2023-01-09T13:16:23.805Z,4.60
2023-01-09T13:19:52.277Z,4.40
2023-01-09T13:23:41.835Z,4.30
2023-01-09T13:27:23.657Z,3.20
2023-01-09T13:31:15.121Z,4.50
2023-01-09T13:35:05.531Z,2.80
2023-01-09T13:38:38.095Z,3.40
2023-01-09T13:42:26.732Z,6.10
2023-01-09T13:45:51.679Z,2.80
2023-01-09T13:49:41.208Z,3.80
2023-01-09T13:53:37.386Z,3.10
2023-01-09T13:57:33.309Z,4.30
2023-01-09T14:01:15.805Z,3.30
2023-01-09T14:05:05.689Z,4.00
2023-01-09T14:09:13.952Z,3.40
2023-01-09T14:12:53.855Z,3.80
2023-01-09T14:16:41.888Z,4.90
2023-01-09T14:20:35.067Z,3.80
2023-01-09T14:24:37.251Z,4.80
2023-01-09T14:28:32.060Z,5.70
2023-01-09T14:32:21.337Z,4.90
2023-01-09T14:36:15.888Z,4.10
2023-01-09T14:40:05.603Z,4.40
2023-01-09T14:43:55.829Z,4.00
2023-01-09T14:47:45.835Z,5.00
2023-01-09T14:51:38.665Z,4.30
2023-01-09T14:55:28.856Z,4.20
2023-01-09T14:59:22.876Z,2.90
2023-01-09T15:03:12.946Z,2.80
2023-01-09T15:06:57.502Z,3.50
2023-01-09T15:10:46.379Z,4.00
2023-01-09T15:14:31.858Z,4.30
2023-01-09T15:18:08.124Z,5.00
2023-01-09T15:22:03.770Z,5.70
2023-01-09T15:26:03.069Z,4.10
2023-01-09T15:29:56.034Z,3.70
2023-01-09T15:33:44.848Z,2.60
2023-01-09T15:37:25.733Z,4.00
2023-01-09T15:41:18.649Z,5.00
2023-01-09T15:45:08.824Z,3.30
2023-01-09T15:48:54.212Z,4.10
2023-01-09T15:52:44.123Z,3.80
2023-01-09T15:56:21.592Z,3.00
2023-01-09T16:00:23.692Z,2.80
2023-01-09T16:03:40.176Z,3.80
2023-01-09T16:07:30.759Z,3.30
2023-01-09T16:11:23.692Z,3.00
2023-01-09T16:15:19.776Z,3.80
2023-01-09T16:18:59.656Z,4.30
2023-01-09T16:22:49.704Z,2.80
2023-01-09T16:26:30.412Z,2.40
2023-01-09T16:30:29.557Z,2.60
2023-01-09T16:34:20.448Z,4.20
2023-01-09T16:38:00.516Z,3.20
2023-01-09T16:41:52.926Z,2.60
2023-01-09T16:45:32.929Z,3.60
2023-01-09T16:49:23.331Z,3.20
2023-01-09T16:52:45.266Z,3.80
2023-01-09T16:55:59.589Z,3.00
2023-01-09T16:59:49.791Z,2.40
2023-01-09T17:02:59.087Z,2.90
2023-01-09T17:06:42.343Z,2.00
2023-01-09T17:10:32.098Z,2.60
2023-01-09T17:14:22.871Z,2.30
2023-01-09T17:18:13.155Z,2.00
2023-01-09T17:22:03.458Z,2.20
2023-01-09T17:25:29.807Z,3.10
2023-01-09T17:29:01.691Z,2.70
2023-01-09T17:32:31.730Z,2.60
2023-01-09T17:36:04.255Z,2.00
2023-01-09T17:39:47.600Z,2.10
2023-01-09T17:43:05.748Z,3.10
2023-01-09T17:46:55.772Z,2.50
2023-01-09T17:50:31.688Z,2.30
2023-01-09T17:54:01.233Z,2.80
2023-01-09T17:57:44.405Z,2.90
2023-01-09T18:01:25.282Z,2.40
2023-01-09T18:05:02.930Z,2.70
2023-01-09T18:08:36.632Z,1.90
2023-01-09T18:12:19.856Z,2.20
2023-01-09T18:16:09.705Z,2.00
2023-01-09T18:19:33.115Z,1.40
2023-01-09T18:22:56.034Z,2.10
2023-01-09T18:26:28.218Z,1.60
2023-01-09T18:30:17.851Z,2.00
2023-01-09T18:34:06.416Z,2.10
2023-01-09T18:37:45.332Z,1.90
2023-01-09T18:41:36.767Z,2.70
2023-01-09T18:44:59.482Z,1.60
2023-01-09T18:48:49.801Z,1.40
2023-01-09T18:52:29.286Z,1.60
2023-01-09T18:56:02.681Z,2.60
2023-01-09T18:59:48.153Z,1.90
2023-01-09T19:03:37.982Z,1.80
2023-01-09T19:07:10.715Z,2.10
2023-01-09T19:11:01.017Z,2.10
2023-01-09T19:14:52.318Z,1.90
2023-01-09T19:18:35.874Z,2.40
2023-01-09T19:22:25.768Z,1.80
2023-01-09T19:26:15.992Z,1.80
2023-01-09T19:30:05.880Z,1.90
2023-01-09T19:33:38.843Z,2.30
2023-01-09T19:37:29.259Z,2.60
2023-01-09T19:41:19.911Z,2.10
2023-01-09T19:45:10.164Z,1.90
2023-01-09T19:48:49.194Z,1.90
2023-01-09T19:52:39.380Z,1.80
2023-01-09T19:56:29.757Z,2.40
2023-01-09T20:00:19.949Z,1.50
2023-01-09T20:04:09.892Z,2.30
2023-01-09T20:07:59.991Z,2.30
2023-01-09T20:11:50.067Z,2.00
2023-01-09T20:15:40.663Z,2.90
2023-01-09T20:19:10.520Z,2.60
2023-01-09T20:22:52.415Z,2.40
2023-01-09T20:26:42.478Z,2.30
2023-01-09T20:30:32.399Z,2.20
2023-01-09T20:34:22.488Z,2.10
2023-01-09T20:38:12.490Z,2.00
2023-01-09T20:41:45.242Z,2.00
2023-01-09T20:45:48.403Z,2.50
2023-01-09T20:49:39.165Z,2.50
2023-01-09T20:53:19.521Z,2.60
2023-01-09T20:57:09.830Z,2.10
2023-01-09T21:00:59.820Z,3.10
2023-01-09T21:04:52.788Z,3.50
2023-01-09T21:08:42.780Z,2.10
2023-01-09T21:12:30.726Z,3.60
2023-01-09T21:16:20.069Z,2.60
2023-01-09T21:20:10.214Z,2.40
2023-01-09T21:23:42.765Z,3.30
2023-01-09T21:27:33.245Z,1.50
2023-01-09T21:30:53.264Z,1.70
2023-01-09T21:34:32.061Z,2.10
2023-01-09T21:38:22.035Z,3.00
2023-01-09T21:42:10.770Z,2.30
2023-01-09T21:45:40.373Z,2.20
2023-01-09T21:49:20.069Z,2.40
2023-01-09T21:52:55.594Z,3.10
2023-01-09T22:00:50.289Z,3.60
